Kaprifol — 5BXX2 — position and weather

sailwx.info

Track history (hours):
 
Tides and Currents Weather Stations Pressure Air Temp Water Temp Dewpoint Dewpoint Depression Visibility Wind Speed Wind Dir Waves Ship Positions

Kaprifol

Last reported at 2015-Aug-24 04:18 UTC. Time now 2015-Aug-31 06:50 UTC.
Position N 56°18' W 002°07'.

Length 90 m; draft 4.8 m.

Type: Tanker. MMSI: 210445000.

Date/timePositionNaut miles runAvg speedWind from/ knotsBaromVisibWave heightAir tempDewpointWater temp
2015-Aug-24 04:18N 56°18' W 002°07'7 8.8
2015-Aug-24 03:33N 56°15' W 002°17'9 9.0
2015-Aug-24 02:33N 56°10' W 002°31'9 8.7
2015-Aug-24 01:33N 56°07' W 002°45'1010.4
2015-Aug-24 00:34N 56°03' W 003°02'1110.7
2015-Aug-23 23:34N 56°01' W 003°21'0 0.0
2015-Aug-22 16:34N 56°01' W 003°22'1110.7
2015-Aug-22 15:34N 56°04' W 003°03'10 9.8
2015-Aug-22 14:33N 56°07' W 002°47'1110.7
2015-Aug-22 13:33N 56°10' W 002°29'1110.9
2015-Aug-22 12:33N 56°15' W 002°11'28510.6
2015-Aug-21 09:33N 58°19' E 005°45'9 9.2
2015-Aug-21 08:33N 58°23' E 006°00'4 3.8
2015-Aug-21 07:31N 58°27' E 005°59'0 0.0
2015-Aug-21 06:31N 58°27' E 005°59'0 0.0
2015-Aug-21 05:31N 58°27' E 005°59'0 0.0
2015-Aug-21 04:31N 58°27' E 005°59'0 0.0
2015-Aug-21 03:31N 58°27' E 005°59'0 0.0
2015-Aug-21 02:31N 58°27' E 005°59'0 0.0
2015-Aug-21 01:31N 58°27' E 005°59'0 0.0
2015-Aug-21 00:31N 58°27' E 005°59'1 1.2
2015-Aug-20 23:33N 58°26' E 005°59'7 7.0
2015-Aug-20 22:34N 58°20' E 006°05'1211.8
2015-Aug-20 21:34N 58°11' E 006°21'10710.5
2015-Aug-20 11:23N 58°33' E 009°40'1112.1
2015-Aug-20 10:31N 58°41' E 009°54'1111.6
2015-Aug-20 09:33N 58°49' E 010°09'1111.2
2015-Aug-20 08:33N 58°56' E 010°25'10 9.8
2015-Aug-20 07:33N 59°05' E 010°34'9 9.5
2015-Aug-20 06:33N 59°15' E 010°36'1111.1
2015-Aug-20 05:33N 59°26' E 010°33'5 4.6
2015-Aug-20 04:32N 59°28' E 010°41'0 0.0
2015-Aug-20 03:32N 59°28' E 010°41'0 0.0
2015-Aug-20 02:32N 59°28' E 010°41'0 0.0
2015-Aug-20 01:29N 59°28' E 010°41'0 0.0
2015-Aug-20 00:29N 59°28' E 010°41'0 0.0
2015-Aug-19 23:29N 59°28' E 010°41'0 0.0
2015-Aug-19 22:26N 59°28' E 010°41'0 0.0
2015-Aug-19 21:32N 59°28' E 010°41'0 0.0
2015-Aug-19 20:29N 59°28' E 010°41'0 0.0
2015-Aug-19 19:29N 59°28' E 010°41'0 0.0
2015-Aug-19 18:32N 59°28' E 010°41'0 0.0
2015-Aug-19 17:32N 59°28' E 010°41'0 0.0
2015-Aug-19 16:32N 59°28' E 010°41'0 0.0
2015-Aug-19 15:32N 59°28' E 010°41'0 0.0
2015-Aug-19 14:32N 59°28' E 010°41'0 0.0
2015-Aug-19 13:31N 59°28' E 010°41'0 0.0
2015-Aug-19 12:31N 59°28' E 010°41'0 0.0
2015-Aug-19 11:31N 59°28' E 010°41'0 0.0
2015-Aug-19 10:31N 59°28' E 010°41'0 0.0
2015-Aug-19 09:33N 59°28' E 010°41'2 2.5
2015-Aug-19 08:34N 59°28' E 010°36'1110.5
2015-Aug-19 07:33N 59°17' E 010°37'1010.0
2015-Aug-19 06:34N 59°07' E 010°35'1010.2
2015-Aug-19 05:33N 59°00' E 010°21'10 9.5
2015-Aug-19 04:33N 59°02' E 010°02'1 0.2
2015-Aug-19 01:29N 59°02' E 010°03'0 0.0
2015-Aug-18 23:26N 59°03' E 010°03'0 0.0
2015-Aug-18 22:08N 59°02' E 010°03'0 0.0
2015-Aug-18 21:33N 59°02' E 010°03'6 6.5
2015-Aug-18 20:33N 58°56' E 010°04'9 8.7
2015-Aug-18 19:32N 58°56' E 009°46'10 9.9
2015-Aug-18 18:33N 58°48' E 009°36'38 9.0
2015-Aug-18 14:21N 58°20' E 008°48'6 8.0
2015-Aug-18 13:33N 58°15' E 008°40'8 7.6
2015-Aug-18 12:33N 58°09' E 008°30'66 6.6
2015-Aug-18 02:33N 58°06' E 006°25'9 9.2
2015-Aug-18 01:33N 58°12' E 006°12'10 9.6
2015-Aug-18 00:33N 58°18' E 005°58'9 8.8
2015-Aug-17 23:33N 58°24' E 005°45'8 8.0
2015-Aug-17 22:33N 58°30' E 005°35'11 9.2
2015-Aug-17 21:22N 58°40' E 005°28'8 9.9
2015-Aug-17 20:33N 58°48' E 005°23'10 9.9
2015-Aug-17 19:33N 58°56' E 005°33'6 6.0
2015-Aug-17 18:33N 59°01' E 005°40'4 3.8
2015-Aug-17 17:33N 58°58' E 005°45'0 0.0
2015-Aug-17 16:33N 58°58' E 005°45'0 0.0
2015-Aug-17 15:33N 58°58' E 005°45'0 0.0
2015-Aug-17 14:33N 58°58' E 005°45'0 0.0
2015-Aug-17 13:33N 58°58' E 005°45'0 0.0
2015-Aug-17 12:33N 58°58' E 005°45'0 0.0
2015-Aug-17 11:33N 58°58' E 005°45'0 0.0
2015-Aug-17 10:33N 58°58' E 005°45'0 0.0
2015-Aug-17 09:33N 58°58' E 005°45'0 0.0
2015-Aug-17 08:33N 58°58' E 005°45'0 0.0
2015-Aug-17 07:33N 58°58' E 005°45'0 0.0
2015-Aug-17 06:33N 58°58' E 005°45'0 0.0
2015-Aug-17 05:30N 58°58' E 005°45'0 0.0
2015-Aug-17 04:33N 58°58' E 005°45'0 0.0
2015-Aug-17 03:33N 58°58' E 005°45'0 0.0
2015-Aug-17 02:33N 58°58' E 005°45'0 0.0
2015-Aug-17 01:33N 58°58' E 005°45'0 0.0
2015-Aug-17 00:33N 58°58' E 005°45'0 0.0
2015-Aug-16 23:33N 58°58' E 005°45'0 0.0
2015-Aug-16 22:33N 58°58' E 005°45'0 0.0
2015-Aug-16 21:33N 58°58' E 005°45'0 0.0
2015-Aug-16 20:33N 58°58' E 005°45'0 0.0
2015-Aug-16 19:33N 58°58' E 005°45'0 0.0
2015-Aug-16 18:30N 58°58' E 005°45'0 0.0
2015-Aug-16 17:33N 58°58' E 005°45'0 0.0
2015-Aug-16 16:33N 58°58' E 005°45'0 0.0
2015-Aug-16 15:33N 58°58' E 005°45'0 0.0
2015-Aug-16 14:33N 58°58' E 005°45'0 0.0
2015-Aug-16 13:33N 58°58' E 005°45'0 0.0
2015-Aug-16 12:33N 58°58' E 005°45'0 0.0
2015-Aug-16 11:33N 58°58' E 005°45'0 0.0
2015-Aug-16 10:33N 58°58' E 005°45'0 0.0
2015-Aug-16 09:32N 58°58' E 005°45'0 0.1
2015-Aug-16 08:33N 58°58' E 005°45'0 0.0
2015-Aug-16 07:33N 58°58' E 005°45'0 0.0
2015-Aug-16 06:32N 58°58' E 005°45'0 0.0
2015-Aug-16 05:32N 58°58' E 005°45'0 0.0
2015-Aug-16 04:32N 58°58' E 005°45'2 2.5
2015-Aug-16 03:33N 59°00' E 005°48'8 8.0
2015-Aug-16 02:33N 59°03' E 005°33'1110.8
2015-Aug-16 01:33N 58°52' E 005°31'10 9.9
2015-Aug-16 00:34N 58°50' E 005°12'8 7.7
2015-Aug-15 23:33N 58°50' E 004°57'16 4.0
2015-Aug-15 19:33N 59°04' E 005°13'1110.6
2015-Aug-15 18:29N 59°14' E 005°20'0 0.0
2015-Aug-14 20:20N 59°14' E 005°21'810.4
2015-Aug-14 19:33N 59°06' E 005°21'10 9.6
2015-Aug-14 18:33N 58°56' E 005°21'1110.4
2015-Aug-14 17:33N 58°46' E 005°24'2210.9
2015-Aug-14 15:31N 58°24' E 005°29'1210.6
2015-Aug-14 14:21N 58°12' E 005°33'8110.4
2015-Aug-14 06:33N 56°51' E 005°49'1111.1
2015-Aug-14 05:32N 56°40' E 005°51'  
Track history (hours):
 
Tides and Currents Weather Stations Pressure Air Temp Water Temp Dewpoint Dewpoint Depression Visibility Wind Speed Wind Dir Waves Ship Positions

Kaprifol

Last reported at 2015-Aug-24 04:18 UTC. Time now 2015-Aug-31 06:50 UTC.
Position N 56°18' W 002°07'.

Length 90 m; draft 4.8 m.

Type: Tanker. MMSI: 210445000.

Date/timePositionNaut miles runAvg speedWind from/ knotsBaromVisibWave heightAir tempDewpointWater temp
2015-Aug-24 04:18N 56°18' W 002°07'7 8.8
2015-Aug-24 03:33N 56°15' W 002°17'9 9.0
2015-Aug-24 02:33N 56°10' W 002°31'9 8.7
2015-Aug-24 01:33N 56°07' W 002°45'1010.4
2015-Aug-24 00:34N 56°03' W 003°02'1110.7
2015-Aug-23 23:34N 56°01' W 003°21'0 0.0
2015-Aug-22 16:34N 56°01' W 003°22'1110.7
2015-Aug-22 15:34N 56°04' W 003°03'10 9.8
2015-Aug-22 14:33N 56°07' W 002°47'1110.7
2015-Aug-22 13:33N 56°10' W 002°29'1110.9
2015-Aug-22 12:33N 56°15' W 002°11'28510.6
2015-Aug-21 09:33N 58°19' E 005°45'9 9.2
2015-Aug-21 08:33N 58°23' E 006°00'4 3.8
2015-Aug-21 07:31N 58°27' E 005°59'0 0.0
2015-Aug-21 06:31N 58°27' E 005°59'0 0.0
2015-Aug-21 05:31N 58°27' E 005°59'0 0.0
2015-Aug-21 04:31N 58°27' E 005°59'0 0.0
2015-Aug-21 03:31N 58°27' E 005°59'0 0.0
2015-Aug-21 02:31N 58°27' E 005°59'0 0.0
2015-Aug-21 01:31N 58°27' E 005°59'0 0.0
2015-Aug-21 00:31N 58°27' E 005°59'1 1.2
2015-Aug-20 23:33N 58°26' E 005°59'7 7.0
2015-Aug-20 22:34N 58°20' E 006°05'1211.8
2015-Aug-20 21:34N 58°11' E 006°21'10710.5
2015-Aug-20 11:23N 58°33' E 009°40'1112.1
2015-Aug-20 10:31N 58°41' E 009°54'1111.6
2015-Aug-20 09:33N 58°49' E 010°09'1111.2
2015-Aug-20 08:33N 58°56' E 010°25'10 9.8
2015-Aug-20 07:33N 59°05' E 010°34'9 9.5
2015-Aug-20 06:33N 59°15' E 010°36'1111.1
2015-Aug-20 05:33N 59°26' E 010°33'5 4.6
2015-Aug-20 04:32N 59°28' E 010°41'0 0.0
2015-Aug-20 03:32N 59°28' E 010°41'0 0.0
2015-Aug-20 02:32N 59°28' E 010°41'0 0.0
2015-Aug-20 01:29N 59°28' E 010°41'0 0.0
2015-Aug-20 00:29N 59°28' E 010°41'0 0.0
2015-Aug-19 23:29N 59°28' E 010°41'0 0.0
2015-Aug-19 22:26N 59°28' E 010°41'0 0.0
2015-Aug-19 21:32N 59°28' E 010°41'0 0.0
2015-Aug-19 20:29N 59°28' E 010°41'0 0.0
2015-Aug-19 19:29N 59°28' E 010°41'0 0.0
2015-Aug-19 18:32N 59°28' E 010°41'0 0.0
2015-Aug-19 17:32N 59°28' E 010°41'0 0.0
2015-Aug-19 16:32N 59°28' E 010°41'0 0.0
2015-Aug-19 15:32N 59°28' E 010°41'0 0.0
2015-Aug-19 14:32N 59°28' E 010°41'0 0.0
2015-Aug-19 13:31N 59°28' E 010°41'0 0.0
2015-Aug-19 12:31N 59°28' E 010°41'0 0.0
2015-Aug-19 11:31N 59°28' E 010°41'0 0.0
2015-Aug-19 10:31N 59°28' E 010°41'0 0.0
2015-Aug-19 09:33N 59°28' E 010°41'2 2.5
2015-Aug-19 08:34N 59°28' E 010°36'1110.5
2015-Aug-19 07:33N 59°17' E 010°37'1010.0
2015-Aug-19 06:34N 59°07' E 010°35'1010.2
2015-Aug-19 05:33N 59°00' E 010°21'10 9.5
2015-Aug-19 04:33N 59°02' E 010°02'1 0.2
2015-Aug-19 01:29N 59°02' E 010°03'0 0.0
2015-Aug-18 23:26N 59°03' E 010°03'0 0.0
2015-Aug-18 22:08N 59°02' E 010°03'0 0.0
2015-Aug-18 21:33N 59°02' E 010°03'6 6.5
2015-Aug-18 20:33N 58°56' E 010°04'9 8.7
2015-Aug-18 19:32N 58°56' E 009°46'10 9.9
2015-Aug-18 18:33N 58°48' E 009°36'38 9.0
2015-Aug-18 14:21N 58°20' E 008°48'6 8.0
2015-Aug-18 13:33N 58°15' E 008°40'8 7.6
2015-Aug-18 12:33N 58°09' E 008°30'66 6.6
2015-Aug-18 02:33N 58°06' E 006°25'9 9.2
2015-Aug-18 01:33N 58°12' E 006°12'10 9.6
2015-Aug-18 00:33N 58°18' E 005°58'9 8.8
2015-Aug-17 23:33N 58°24' E 005°45'8 8.0
2015-Aug-17 22:33N 58°30' E 005°35'11 9.2
2015-Aug-17 21:22N 58°40' E 005°28'8 9.9
2015-Aug-17 20:33N 58°48' E 005°23'10 9.9
2015-Aug-17 19:33N 58°56' E 005°33'6 6.0
2015-Aug-17 18:33N 59°01' E 005°40'4 3.8
2015-Aug-17 17:33N 58°58' E 005°45'0 0.0
2015-Aug-17 16:33N 58°58' E 005°45'0 0.0
2015-Aug-17 15:33N 58°58' E 005°45'0 0.0
2015-Aug-17 14:33N 58°58' E 005°45'0 0.0
2015-Aug-17 13:33N 58°58' E 005°45'0 0.0
2015-Aug-17 12:33N 58°58' E 005°45'0 0.0
2015-Aug-17 11:33N 58°58' E 005°45'0 0.0
2015-Aug-17 10:33N 58°58' E 005°45'0 0.0
2015-Aug-17 09:33N 58°58' E 005°45'0 0.0
2015-Aug-17 08:33N 58°58' E 005°45'0 0.0
2015-Aug-17 07:33N 58°58' E 005°45'0 0.0
2015-Aug-17 06:33N 58°58' E 005°45'0 0.0
2015-Aug-17 05:30N 58°58' E 005°45'0 0.0
2015-Aug-17 04:33N 58°58' E 005°45'0 0.0
2015-Aug-17 03:33N 58°58' E 005°45'0 0.0
2015-Aug-17 02:33N 58°58' E 005°45'0 0.0
2015-Aug-17 01:33N 58°58' E 005°45'0 0.0
2015-Aug-17 00:33N 58°58' E 005°45'0 0.0
2015-Aug-16 23:33N 58°58' E 005°45'0 0.0
2015-Aug-16 22:33N 58°58' E 005°45'0 0.0
2015-Aug-16 21:33N 58°58' E 005°45'0 0.0
2015-Aug-16 20:33N 58°58' E 005°45'0 0.0
2015-Aug-16 19:33N 58°58' E 005°45'0 0.0
2015-Aug-16 18:30N 58°58' E 005°45'0 0.0
2015-Aug-16 17:33N 58°58' E 005°45'0 0.0
2015-Aug-16 16:33N 58°58' E 005°45'0 0.0
2015-Aug-16 15:33N 58°58' E 005°45'0 0.0
2015-Aug-16 14:33N 58°58' E 005°45'0 0.0
2015-Aug-16 13:33N 58°58' E 005°45'0 0.0
2015-Aug-16 12:33N 58°58' E 005°45'0 0.0
2015-Aug-16 11:33N 58°58' E 005°45'0 0.0
2015-Aug-16 10:33N 58°58' E 005°45'0 0.0
2015-Aug-16 09:32N 58°58' E 005°45'0 0.1
2015-Aug-16 08:33N 58°58' E 005°45'0 0.0
2015-Aug-16 07:33N 58°58' E 005°45'0 0.0
2015-Aug-16 06:32N 58°58' E 005°45'0 0.0
2015-Aug-16 05:32N 58°58' E 005°45'0 0.0
2015-Aug-16 04:32N 58°58' E 005°45'2 2.5
2015-Aug-16 03:33N 59°00' E 005°48'8 8.0
2015-Aug-16 02:33N 59°03' E 005°33'1110.8
2015-Aug-16 01:33N 58°52' E 005°31'10 9.9
2015-Aug-16 00:34N 58°50' E 005°12'8 7.7
2015-Aug-15 23:33N 58°50' E 004°57'16 4.0
2015-Aug-15 19:33N 59°04' E 005°13'1110.6
2015-Aug-15 18:29N 59°14' E 005°20'0 0.0
2015-Aug-14 20:20N 59°14' E 005°21'810.4
2015-Aug-14 19:33N 59°06' E 005°21'10 9.6
2015-Aug-14 18:33N 58°56' E 005°21'1110.4
2015-Aug-14 17:33N 58°46' E 005°24'2210.9
2015-Aug-14 15:31N 58°24' E 005°29'1210.6
2015-Aug-14 14:21N 58°12' E 005°33'8110.4
2015-Aug-14 06:33N 56°51' E 005°49'1111.1
2015-Aug-14 05:32N 56°40' E 005°51'  

Dump ship's entire track history